Time;durP1;ratioP1;P1;durP2;ratioP2;P2;SDS_P1;SDS_P2;PMS_P1;PMS_P2;Temp;Humidity;BMP_temperature;BMP_pressure;BME280_temperature;BME280_humidity;BME280_pressure;Samples;Min_cycle;Max_cycle;Signal;HPM_P1;HPM_P2
2022/12/09 00:00:01;;;;;;;17.60;11.43;;;3.50;99.90;;;;;;5094706;28;20060;-66
2022/12/09 00:02:28;;;;;;;15.70;11.48;;;3.50;99.90;;;;;;5094566;28;20048;-65
2022/12/09 00:04:54;;;;;;;17.17;11.57;;;3.50;99.90;;;;;;5094696;28;20088;-65
2022/12/09 00:07:20;;;;;;;16.58;12.10;;;3.50;99.90;;;;;;5094552;28;20036;-65
2022/12/09 00:09:45;;;;;;;17.85;12.70;;;3.50;99.90;;;;;;5077830;28;20131;-64
2022/12/09 00:12:11;;;;;;;17.10;12.13;;;3.50;99.90;;;;;;5077842;28;20138;-65
2022/12/09 00:14:36;;;;;;;15.75;11.80;;;3.40;99.90;;;;;;5112488;28;20039;-65
2022/12/09 00:17:02;;;;;;;20.85;14.23;;;3.30;99.90;;;;;;5086024;28;20054;-65
2022/12/09 00:19:28;;;;;;;21.02;13.60;;;3.40;99.90;;;;;;5094280;28;20128;-65
2022/12/09 00:21:53;;;;;;;24.63;14.68;;;3.30;99.90;;;;;;5128196;27;20169;-66
2022/12/09 00:24:19;;;;;;;33.58;15.73;;;3.40;99.90;;;;;;5077590;28;20027;-65
2022/12/09 00:26:45;;;;;;;34.67;17.65;;;3.40;99.90;;;;;;5094051;28;20477;-65
2022/12/09 00:29:11;;;;;;;22.80;13.50;;;3.40;99.90;;;;;;5094747;28;20050;-65
2022/12/09 00:31:37;;;;;;;21.38;13.20;;;3.40;99.90;;;;;;5094075;28;20035;-65
2022/12/09 00:34:06;;;;;;;21.95;13.52;;;3.40;99.90;;;;;;5128260;27;20476;-65
2022/12/09 00:36:32;;;;;;;26.85;15.18;;;3.40;99.90;;;;;;5128337;27;20391;-65
2022/12/09 00:38:58;;;;;;;25.25;15.05;;;3.40;99.90;;;;;;5128424;27;20075;-65
2022/12/09 00:41:25;;;;;;;40.15;19.63;;;3.40;99.90;;;;;;5092824;28;20027;-65
2022/12/09 00:43:51;;;;;;;46.22;21.08;;;3.30;99.90;;;;;;5128057;27;20074;-65
2022/12/09 00:46:17;;;;;;;34.00;17.85;;;3.30;99.90;;;;;;5093776;28;20074;-65
2022/12/09 00:48:44;;;;;;;26.90;16.33;;;3.30;99.90;;;;;;5094129;28;20079;-64
2022/12/09 00:51:13;;;;;;;23.17;14.10;;;3.20;99.90;;;;;;5094261;28;20424;-66
2022/12/09 00:53:39;;;;;;;19.45;13.63;;;3.20;99.90;;;;;;5093532;28;20397;-65
2022/12/09 00:56:05;;;;;;;31.77;16.40;;;3.10;99.90;;;;;;5093772;28;20044;-64
2022/12/09 00:58:31;;;;;;;37.33;18.83;;;3.10;99.90;;;;;;5128008;27;20143;-66
2022/12/09 01:00:56;;;;;;;34.47;16.90;;;3.10;99.90;;;;;;5093308;28;20118;-66
2022/12/09 01:03:22;;;;;;;30.48;15.55;;;3.10;99.90;;;;;;5093513;28;20036;-64
2022/12/09 01:05:48;;;;;;;29.60;15.43;;;3.10;99.90;;;;;;5093407;28;20096;-66
2022/12/09 01:08:14;;;;;;;23.20;14.02;;;3.20;99.90;;;;;;5076412;28;20055;-65
2022/12/09 01:10:42;;;;;;;21.45;13.82;;;3.20;99.90;;;;;;5093325;28;20094;-65
2022/12/09 01:13:08;;;;;;;26.33;14.80;;;3.20;99.90;;;;;;5093383;28;20055;-65
2022/12/09 01:15:36;;;;;;;31.75;15.10;;;3.20;99.90;;;;;;5093257;28;20048;-65
2022/12/09 01:18:01;;;;;;;23.67;14.07;;;3.20;99.90;;;;;;5093519;28;20035;-65
2022/12/09 01:20:27;;;;;;;23.00;14.32;;;3.20;99.90;;;;;;5093302;28;20039;-65
2022/12/09 01:22:53;;;;;;;22.45;13.73;;;3.20;99.90;;;;;;5093329;28;20067;-65
2022/12/09 01:25:18;;;;;;;18.95;13.02;;;3.20;99.90;;;;;;5093759;28;20122;-64
2022/12/09 01:27:44;;;;;;;21.23;12.48;;;3.10;99.90;;;;;;5093180;28;20054;-66
2022/12/09 01:30:12;;;;;;;18.77;12.52;;;3.10;99.90;;;;;;5093281;28;20133;-65
2022/12/09 01:32:38;;;;;;;16.48;11.75;;;3.10;99.90;;;;;;5093204;28;20051;-64
2022/12/09 01:35:04;;;;;;;17.60;12.13;;;3.10;99.90;;;;;;5092963;28;20038;-66
2022/12/09 01:37:34;;;;;;;17.40;11.85;;;3.00;99.90;;;;;;5093062;28;20040;-65
2022/12/09 01:40:01;;;;;;;17.38;10.88;;;3.00;99.90;;;;;;5092765;28;20035;-66
2022/12/09 01:42:26;;;;;;;18.48;11.65;;;3.00;99.90;;;;;;5093090;28;20040;-65
2022/12/09 01:45:31;;;;;;;20.13;11.65;;;2.90;99.90;;;;;;5092809;28;20390;-65
2022/12/09 01:48:10;;;;;;;15.43;11.18;;;2.90;99.90;;;;;;5014999;28;20084;-65
2022/12/09 01:50:38;;;;;;;15.45;10.80;;;2.90;99.90;;;;;;5031916;28;20467;-64
2022/12/09 01:53:05;;;;;;;15.82;10.90;;;2.90;99.90;;;;;;5031160;28;20133;-65
2022/12/09 01:55:31;;;;;;;16.70;9.43;;;2.90;99.90;;;;;;5031385;28;20060;-65
2022/12/09 01:57:57;;;;;;;15.30;9.55;;;2.90;99.90;;;;;;5064776;28;20071;-65
2022/12/09 02:00:23;;;;;;;15.48;10.38;;;2.90;99.90;;;;;;5031334;28;20061;-65
2022/12/09 02:02:49;;;;;;;16.52;10.45;;;2.90;99.90;;;;;;5047561;28;20657;-65
2022/12/09 02:05:16;;;;;;;14.43;10.23;;;2.90;99.90;;;;;;5047365;28;20052;-63
2022/12/09 02:07:41;;;;;;;13.10;9.38;;;2.90;99.90;;;;;;5030983;28;20045;-65
2022/12/09 02:10:14;;;;;;;13.55;9.73;;;2.90;99.90;;;;;;5064328;28;20490;-65
2022/12/09 02:12:48;;;;;;;12.88;9.10;;;2.90;99.90;;;;;;5064780;28;20049;-64
2022/12/09 02:15:22;;;;;;;13.70;9.60;;;2.90;99.90;;;;;;5064566;28;20060;-65
2022/12/09 02:17:51;;;;;;;12.68;9.52;;;2.90;99.90;;;;;;5031380;28;20447;-65
2022/12/09 02:20:17;;;;;;;13.38;8.82;;;2.80;99.90;;;;;;5064782;28;20466;-65
2022/12/09 02:22:46;;;;;;;12.80;8.82;;;2.80;99.90;;;;;;5113931;28;20052;-65
2022/12/09 02:25:44;;;;;;;13.25;9.43;;;2.80;99.90;;;;;;5089097;28;20136;-65
2022/12/09 02:28:27;;;;;;;12.38;8.95;;;2.80;99.90;;;;;;5088327;28;20055;-65
2022/12/09 02:31:07;;;;;;;14.40;8.73;;;2.80;99.90;;;;;;5088982;28;20050;-65
2022/12/09 02:34:04;;;;;;;11.27;8.48;;;2.80;99.90;;;;;;5088991;28;20126;-64
2022/12/09 02:36:39;;;;;;;13.77;9.07;;;2.80;99.90;;;;;;5072575;28;20070;-64
2022/12/09 02:39:06;;;;;;;11.98;8.50;;;2.80;99.90;;;;;;5088986;28;20040;-65
2022/12/09 02:41:33;;;;;;;10.70;7.70;;;2.70;99.90;;;;;;5083226;28;20122;-65
2022/12/09 02:44:06;;;;;;;12.57;9.13;;;2.70;99.90;;;;;;5068915;28;20549;-65
2022/12/09 02:46:34;;;;;;;11.45;8.38;;;2.70;99.90;;;;;;5069031;28;20094;-65
2022/12/09 02:49:01;;;;;;;12.43;8.48;;;2.80;99.90;;;;;;5068832;28;20045;-65
2022/12/09 02:51:31;;;;;;;12.80;9.18;;;2.70;99.90;;;;;;5102598;28;20048;-64
2022/12/09 02:54:03;;;;;;;12.88;9.15;;;2.70;99.90;;;;;;5068412;28;20040;-64
2022/12/09 02:56:30;;;;;;;13.50;9.02;;;2.60;99.90;;;;;;5068610;28;20052;-65
2022/12/09 02:58:56;;;;;;;16.25;9.52;;;2.60;99.90;;;;;;5068704;28;20047;-65
2022/12/09 03:01:41;;;;;;;12.82;9.27;;;2.50;99.90;;;;;;5118074;27;20414;-65
2022/12/09 03:04:11;;;;;;;14.00;9.15;;;2.50;99.90;;;;;;5090358;28;20450;-65
2022/12/09 03:06:46;;;;;;;15.75;9.75;;;2.50;99.90;;;;;;5092385;28;20051;-65
2022/12/09 03:09:27;;;;;;;13.80;9.68;;;2.50;99.90;;;;;;5092334;28;20040;-66
2022/12/09 03:11:57;;;;;;;13.90;9.85;;;2.50;99.90;;;;;;5092598;28;20040;-65
2022/12/09 03:14:34;;;;;;;17.60;10.48;;;2.50;99.90;;;;;;5092199;28;20051;-65
2022/12/09 03:17:10;;;;;;;16.92;10.23;;;2.40;99.90;;;;;;5092172;28;20043;-65
2022/12/09 03:19:51;;;;;;;17.25;10.43;;;2.40;99.90;;;;;;5092276;28;20040;-64
2022/12/09 03:22:21;;;;;;;16.42;10.00;;;2.40;99.90;;;;;;5092286;28;20439;-65
2022/12/09 03:25:03;;;;;;;15.90;9.07;;;2.30;99.90;;;;;;5070171;28;20059;-64
2022/12/09 03:27:35;;;;;;;16.03;10.00;;;2.30;99.90;;;;;;5092264;28;20051;-64
2022/12/09 03:30:04;;;;;;;14.43;9.27;;;2.30;99.90;;;;;;5093440;28;20494;-63
2022/12/09 03:32:31;;;;;;;14.68;8.82;;;2.30;99.90;;;;;;5091921;28;20047;-65
2022/12/09 03:35:06;;;;;;;14.95;9.77;;;2.30;99.90;;;;;;5126198;27;20528;-64
2022/12/09 03:37:33;;;;;;;12.93;9.32;;;2.30;99.90;;;;;;5091781;28;20477;-66
2022/12/09 03:40:00;;;;;;;14.13;9.25;;;2.30;99.90;;;;;;5092265;28;20051;-65
2022/12/09 03:42:34;;;;;;;13.88;9.18;;;2.20;99.90;;;;;;5125935;27;20044;-65
2022/12/09 03:45:08;;;;;;;13.95;9.90;;;2.20;99.90;;;;;;5074982;28;20036;-65
2022/12/09 03:47:34;;;;;;;13.75;9.27;;;2.20;99.90;;;;;;5092000;28;20505;-65
2022/12/09 03:50:00;;;;;;;16.48;10.02;;;2.20;99.90;;;;;;5091755;28;20039;-66
2022/12/09 03:52:39;;;;;;;17.08;10.27;;;2.20;99.90;;;;;;5071926;28;20056;-65
2022/12/09 03:55:12;;;;;;;14.70;9.98;;;2.20;99.90;;;;;;5090585;28;20479;-64
2022/12/09 03:57:41;;;;;;;12.55;9.48;;;2.20;99.90;;;;;;5091938;28;20039;-66
2022/12/09 04:00:07;;;;;;;16.05;9.80;;;2.10;99.90;;;;;;5094667;28;20093;-64
2022/12/09 04:02:33;;;;;;;13.93;10.15;;;2.10;99.90;;;;;;5094570;28;20085;-66
2022/12/09 04:04:58;;;;;;;13.57;9.43;;;2.10;99.90;;;;;;5095146;28;20521;-65
2022/12/09 04:07:24;;;;;;;16.10;10.23;;;2.10;99.90;;;;;;5094651;28;20118;-65
2022/12/09 04:09:50;;;;;;;13.52;9.65;;;2.10;99.90;;;;;;5094643;28;20046;-65
2022/12/09 04:12:15;;;;;;;13.73;9.95;;;2.10;99.90;;;;;;5094546;28;20497;-64
2022/12/09 04:14:41;;;;;;;14.85;10.85;;;2.10;99.90;;;;;;5094232;28;20126;-63
2022/12/09 04:17:06;;;;;;;14.60;10.02;;;2.10;99.90;;;;;;5094552;28;20110;-65
2022/12/09 04:19:32;;;;;;;14.75;10.65;;;2.10;99.90;;;;;;5112501;28;20047;-64
2022/12/09 04:21:58;;;;;;;15.73;10.63;;;2.10;99.90;;;;;;5112640;28;20031;-64
2022/12/09 04:24:23;;;;;;;15.25;10.43;;;2.10;99.90;;;;;;5094326;28;20036;-64
2022/12/09 04:26:49;;;;;;;15.93;10.50;;;2.10;99.90;;;;;;5094310;28;20126;-65
2022/12/09 04:29:14;;;;;;;14.38;9.80;;;2.00;99.90;;;;;;5077241;28;20201;-65
2022/12/09 04:31:40;;;;;;;15.90;9.80;;;2.00;99.90;;;;;;5093953;28;20089;-64
2022/12/09 04:34:06;;;;;;;15.00;9.73;;;2.00;99.90;;;;;;5094133;28;20044;-66
2022/12/09 04:36:31;;;;;;;14.13;10.10;;;2.00;99.90;;;;;;5093982;28;20486;-65
2022/12/09 04:38:58;;;;;;;15.52;10.45;;;2.00;99.90;;;;;;5094416;28;20047;-65
2022/12/09 04:41:24;;;;;;;13.68;9.63;;;1.90;99.90;;;;;;5128096;27;20044;-65
2022/12/09 04:43:49;;;;;;;15.95;10.30;;;1.80;99.90;;;;;;5077536;28;20074;-65
2022/12/09 04:46:16;;;;;;;15.02;10.13;;;1.80;99.90;;;;;;5093939;28;20046;-65
2022/12/09 04:48:42;;;;;;;14.15;9.73;;;1.70;99.90;;;;;;5127729;27;20043;-65
2022/12/09 04:51:09;;;;;;;14.63;9.45;;;1.70;99.90;;;;;;5093896;28;20044;-65
2022/12/09 04:53:35;;;;;;;14.93;9.98;;;1.70;99.90;;;;;;5093602;28;20047;-66
2022/12/09 04:56:05;;;;;;;14.48;9.10;;;1.70;99.90;;;;;;5127690;27;20124;-65
2022/12/09 04:58:31;;;;;;;14.35;9.27;;;1.70;99.90;;;;;;5127612;27;20043;-66
2022/12/09 05:00:57;;;;;;;13.68;9.63;;;1.70;99.90;;;;;;5127729;27;20089;-64
2022/12/09 05:03:23;;;;;;;13.23;9.07;;;1.70;99.90;;;;;;5093605;28;20051;-64
2022/12/09 05:05:49;;;;;;;15.15;9.18;;;1.60;99.90;;;;;;5093366;28;20069;-64
2022/12/09 05:08:15;;;;;;;12.27;8.13;;;1.60;99.90;;;;;;5093908;28;20110;-65
2022/12/09 05:10:46;;;;;;;12.25;9.13;;;1.60;99.90;;;;;;5093364;28;20043;-65
2022/12/09 05:13:11;;;;;;;13.75;9.27;;;1.50;99.90;;;;;;5111653;28;20080;-65
2022/12/09 05:15:37;;;;;;;14.63;10.57;;;1.50;99.90;;;;;;5111425;28;20048;-65
2022/12/09 05:18:03;;;;;;;19.15;9.82;;;1.40;99.90;;;;;;5093569;28;20047;-64
2022/12/09 05:20:29;;;;;;;15.00;9.88;;;1.40;99.90;;;;;;5076633;28;20052;-65
2022/12/09 05:22:55;;;;;;;17.02;9.95;;;1.30;99.90;;;;;;5093156;28;20032;-65
2022/12/09 05:25:21;;;;;;;16.48;11.60;;;1.30;99.90;;;;;;5093650;28;20043;-65
2022/12/09 05:27:47;;;;;;;16.67;10.63;;;1.20;99.90;;;;;;5075252;28;20102;-65
2022/12/09 05:30:13;;;;;;;16.02;11.27;;;1.20;99.90;;;;;;5093463;28;20559;-65
2022/12/09 05:32:39;;;;;;;18.33;11.82;;;1.20;99.90;;;;;;5093271;28;20485;-65
2022/12/09 05:35:04;;;;;;;15.90;10.60;;;1.10;99.90;;;;;;5092971;28;20054;-65
2022/12/09 05:37:30;;;;;;;12.52;9.35;;;1.10;99.90;;;;;;5075851;28;20051;-65
2022/12/09 05:39:56;;;;;;;15.23;10.32;;;1.10;99.90;;;;;;5084078;28;20035;-65
2022/12/09 05:42:21;;;;;;;22.50;12.48;;;1.10;99.90;;;;;;5091365;28;20043;-66
2022/12/09 05:44:47;;;;;;;19.30;12.48;;;1.10;99.90;;;;;;5092803;28;20039;-65
2022/12/09 05:47:12;;;;;;;20.65;12.10;;;1.10;99.90;;;;;;5093030;28;20035;-65
2022/12/09 05:49:38;;;;;;;15.98;11.25;;;1.00;99.90;;;;;;5092878;28;20049;-65
2022/12/09 05:52:04;;;;;;;20.65;12.93;;;1.00;99.90;;;;;;5111291;28;20442;-65
2022/12/09 05:54:30;;;;;;;20.00;13.38;;;1.00;99.90;;;;;;5092886;28;20048;-65
2022/12/09 05:56:56;;;;;;;20.58;13.10;;;1.00;99.90;;;;;;5111048;28;20039;-64
2022/12/09 05:59:23;;;;;;;22.25;13.30;;;1.00;99.90;;;;;;5092927;28;20046;-64
2022/12/09 06:01:49;;;;;;;21.10;14.10;;;0.90;99.90;;;;;;5092707;28;20048;-66
2022/12/09 06:04:15;;;;;;;19.73;12.60;;;0.90;99.90;;;;;;5075442;28;20127;-65
2022/12/09 06:06:41;;;;;;;18.55;12.82;;;0.90;99.90;;;;;;5093257;28;20386;-65
2022/12/09 06:09:10;;;;;;;17.55;12.40;;;0.90;99.90;;;;;;5092643;28;20046;-65
2022/12/09 06:11:37;;;;;;;19.13;12.77;;;0.90;99.90;;;;;;5092501;28;20118;-65
2022/12/09 06:14:03;;;;;;;19.85;13.63;;;0.90;99.90;;;;;;5092554;28;20044;-65
2022/12/09 06:16:29;;;;;;;20.33;13.50;;;0.90;99.90;;;;;;5092717;28;20031;-65
2022/12/09 06:18:54;;;;;;;24.17;15.13;;;0.90;99.90;;;;;;5126645;28;20096;-64
2022/12/09 06:21:20;;;;;;;19.95;13.27;;;0.80;99.90;;;;;;5092406;28;20067;-64
2022/12/09 06:23:47;;;;;;;22.25;13.93;;;0.80;99.90;;;;;;5126906;28;20534;-65
2022/12/09 06:26:21;;;;;;;21.88;13.80;;;0.90;99.90;;;;;;5092400;28;20039;-65
2022/12/09 06:28:47;;;;;;;20.02;13.57;;;0.80;99.90;;;;;;5092505;28;20046;-65
2022/12/09 06:31:13;;;;;;;23.67;13.93;;;0.90;99.90;;;;;;5109594;28;20031;-65
2022/12/09 06:33:39;;;;;;;20.70;14.00;;;0.90;99.90;;;;;;5092727;28;20036;-65
2022/12/09 06:36:05;;;;;;;22.45;14.05;;;0.80;99.90;;;;;;5092528;28;20443;-64
2022/12/09 06:38:31;;;;;;;21.90;13.90;;;0.90;99.90;;;;;;5127689;27;20498;-65
2022/12/09 06:40:57;;;;;;;21.85;14.27;;;0.80;99.90;;;;;;5096367;28;20084;-65
2022/12/09 06:43:22;;;;;;;25.20;15.32;;;0.80;99.90;;;;;;5096432;28;20135;-66
2022/12/09 06:45:48;;;;;;;22.40;14.43;;;0.80;99.90;;;;;;5114797;28;20144;-65
2022/12/09 06:48:13;;;;;;;23.75;14.65;;;0.80;99.90;;;;;;5096366;28;20158;-65
2022/12/09 06:50:40;;;;;;;19.80;13.35;;;0.80;99.90;;;;;;5096413;28;20040;-65
2022/12/09 06:53:05;;;;;;;23.98;14.75;;;0.70;99.90;;;;;;5096380;28;20040;-65
2022/12/09 06:55:31;;;;;;;21.52;14.68;;;0.70;99.90;;;;;;5096059;28;20055;-65
2022/12/09 06:57:58;;;;;;;22.85;15.23;;;0.70;99.90;;;;;;5096029;28;20035;-65
2022/12/09 07:00:24;;;;;;;25.88;17.15;;;0.70;99.90;;;;;;5112416;28;20428;-65
2022/12/09 07:02:50;;;;;;;28.58;16.70;;;0.60;99.90;;;;;;5096189;28;20036;-65
2022/12/09 07:05:16;;;;;;;19.75;13.45;;;0.60;99.90;;;;;;5095592;28;20035;-65
2022/12/09 07:07:42;;;;;;;15.65;9.75;;;0.60;99.90;;;;;;5114405;28;20038;-65
2022/12/09 07:10:09;;;;;;;18.20;10.13;;;0.60;99.90;;;;;;5095941;28;20031;-66
2022/12/09 07:12:34;;;;;;;15.95;10.35;;;0.60;99.90;;;;;;5096113;28;20109;-65
2022/12/09 07:15:00;;;;;;;26.42;9.77;;;0.50;99.90;;;;;;5096109;28;20476;-65
2022/12/09 07:17:26;;;;;;;15.13;10.27;;;0.50;99.90;;;;;;5095829;28;20042;-64
2022/12/09 07:19:51;;;;;;;16.92;11.43;;;0.40;99.90;;;;;;5095772;28;20122;-65
2022/12/09 07:22:17;;;;;;;19.85;12.10;;;0.40;99.90;;;;;;5114009;28;20046;-66
2022/12/09 07:24:43;;;;;;;19.70;13.20;;;0.40;99.90;;;;;;5095897;28;20362;-65
2022/12/09 07:27:12;;;;;;;21.45;13.30;;;0.40;99.90;;;;;;5094945;28;20081;-66
2022/12/09 07:29:38;;;;;;;24.60;14.57;;;0.40;99.90;;;;;;5092044;28;20090;-65
2022/12/09 07:32:04;;;;;;;18.65;12.40;;;0.50;99.90;;;;;;5078616;28;20035;-65
2022/12/09 07:34:30;;;;;;;19.45;12.23;;;0.50;99.90;;;;;;5095252;28;20050;-64
2022/12/09 07:36:55;;;;;;;24.92;16.40;;;0.60;99.90;;;;;;5095480;28;20040;-66
2022/12/09 07:39:21;;;;;;;26.50;16.70;;;0.50;99.90;;;;;;5095384;28;20122;-65
2022/12/09 07:41:57;;;;;;;29.35;17.95;;;0.60;99.90;;;;;;5078318;28;20058;-65
2022/12/09 07:44:26;;;;;;;29.63;18.30;;;0.60;99.90;;;;;;5095315;28;20047;-65
2022/12/09 07:46:53;;;;;;;28.48;17.42;;;0.70;99.90;;;;;;5095344;28;20069;-65
2022/12/09 07:49:18;;;;;;;27.63;17.33;;;0.70;99.90;;;;;;5094615;28;20034;-66
2022/12/09 07:51:44;;;;;;;34.17;20.00;;;0.80;99.90;;;;;;5095277;28;20119;-64
2022/12/09 07:54:14;;;;;;;32.20;20.08;;;0.90;99.90;;;;;;5095138;28;20039;-64
2022/12/09 07:56:40;;;;;;;43.15;23.83;;;0.90;99.90;;;;;;5095723;28;20479;-65
2022/12/09 07:59:07;;;;;;;46.00;23.55;;;1.00;99.90;;;;;;5078164;28;20044;-66
2022/12/09 08:01:33;;;;;;;44.00;23.50;;;1.10;99.90;;;;;;5077804;28;20168;-66
2022/12/09 08:04:00;;;;;;;56.00;24.00;;;1.10;99.90;;;;;;5094923;28;20038;-66
2022/12/09 08:06:28;;;;;;;101.03;24.80;;;1.10;99.90;;;;;;5094561;28;20040;-65
2022/12/09 08:08:56;;;;;;;212.07;26.45;;;1.20;99.90;;;;;;5129222;27;20031;-65
2022/12/09 08:11:24;;;;;;;331.70;27.02;;;1.10;99.90;;;;;;5128847;27;20052;-65
2022/12/09 08:13:51;;;;;;;109.38;23.45;;;1.10;99.90;;;;;;5129169;27;20482;-64
2022/12/09 08:16:18;;;;;;;240.65;24.30;;;1.10;99.90;;;;;;5095004;28;20478;-66
2022/12/09 08:18:44;;;;;;;268.55;24.13;;;1.10;99.90;;;;;;5094587;28;20119;-65
2022/12/09 08:21:15;;;;;;;254.98;23.40;;;1.00;99.90;;;;;;5129010;27;20040;-65
2022/12/09 08:23:41;;;;;;;61.15;21.13;;;1.00;99.90;;;;;;5077603;28;20562;-65
2022/12/09 08:26:08;;;;;;;320.70;23.90;;;1.10;99.90;;;;;;5128816;27;20123;-65
2022/12/09 08:28:34;;;;;;;384.15;24.80;;;1.00;99.90;;;;;;5128426;27;20093;-65
2022/12/09 08:31:06;;;;;;;282.10;24.50;;;1.00;99.90;;;;;;5094580;28;20036;-66
2022/12/09 08:33:33;;;;;;;290.52;23.80;;;0.90;99.90;;;;;;5111225;28;20051;-66
2022/12/09 08:36:00;;;;;;;128.48;22.52;;;0.80;99.90;;;;;;5094205;28;20043;-65
2022/12/09 08:38:25;;;;;;;72.10;23.83;;;0.70;99.90;;;;;;5094345;28;20048;-65
2022/12/09 08:40:51;;;;;;;381.80;26.67;;;0.70;99.90;;;;;;5077624;28;20095;-65
2022/12/09 08:43:16;;;;;;;177.90;23.80;;;0.70;99.90;;;;;;5094140;28;20038;-65
2022/12/09 08:45:42;;;;;;;202.13;24.73;;;0.80;99.90;;;;;;5094130;28;20040;-66
2022/12/09 08:48:08;;;;;;;177.25;23.58;;;0.80;99.90;;;;;;5094095;28;20096;-65
2022/12/09 08:50:33;;;;;;;248.18;26.58;;;0.90;99.90;;;;;;5093814;28;20047;-66
2022/12/09 08:52:59;;;;;;;55.47;22.63;;;0.90;99.90;;;;;;5093841;28;20475;-65
2022/12/09 08:55:26;;;;;;;337.63;27.25;;;0.90;99.90;;;;;;5093913;28;20131;-65
2022/12/09 08:57:52;;;;;;;227.88;24.67;;;0.90;99.90;;;;;;5093993;28;20409;-65
2022/12/09 09:00:18;;;;;;;186.43;23.25;;;0.80;99.90;;;;;;5093910;28;20040;-66
2022/12/09 09:02:44;;;;;;;111.35;23.50;;;0.70;99.90;;;;;;5092872;28;20047;-65
2022/12/09 09:05:10;;;;;;;283.52;26.90;;;0.80;99.90;;;;;;5093891;28;20127;-65
2022/12/09 09:07:37;;;;;;;241.82;24.33;;;0.70;99.90;;;;;;5127828;27;20553;-65
2022/12/09 09:10:03;;;;;;;177.55;23.13;;;0.70;99.90;;;;;;5093525;28;20097;-65
2022/12/09 09:12:28;;;;;;;107.18;21.40;;;0.80;99.90;;;;;;5127574;27;20039;-64
2022/12/09 09:14:54;;;;;;;197.23;22.98;;;0.80;99.90;;;;;;5127713;27;20070;-65
2022/12/09 09:17:21;;;;;;;150.85;22.45;;;0.80;99.90;;;;;;5086866;28;20044;-65
2022/12/09 09:19:47;;;;;;;110.97;21.40;;;0.80;99.90;;;;;;5092693;28;20047;-64
2022/12/09 09:22:12;;;;;;;71.22;23.08;;;0.80;99.90;;;;;;5126789;27;20438;-65
2022/12/09 09:24:38;;;;;;;65.50;20.13;;;1.00;99.90;;;;;;5093065;28;20138;-65
2022/12/09 09:27:04;;;;;;;66.22;21.77;;;1.00;99.90;;;;;;5127332;27;20110;-65
2022/12/09 09:29:30;;;;;;;54.22;21.35;;;1.10;99.90;;;;;;5093592;28;20115;-65
2022/12/09 09:31:56;;;;;;;54.58;22.17;;;1.10;99.90;;;;;;5093031;28;20039;-66
2022/12/09 09:34:24;;;;;;;60.58;21.25;;;1.20;99.90;;;;;;5093201;28;20138;-65
2022/12/09 09:36:52;;;;;;;84.40;21.42;;;1.30;99.90;;;;;;5111436;28;20047;-65
2022/12/09 09:39:18;;;;;;;60.40;20.63;;;1.20;99.90;;;;;;5087617;28;20058;-64
2022/12/09 09:41:47;;;;;;;120.20;20.70;;;1.20;99.90;;;;;;5093471;28;20122;-64
2022/12/09 09:44:19;;;;;;;63.55;21.42;;;1.20;99.90;;;;;;5092997;28;20035;-66
2022/12/09 09:46:47;;;;;;;56.50;21.30;;;1.20;99.90;;;;;;5092961;28;20113;-66
2022/12/09 09:49:27;;;;;;;113.53;20.60;;;1.20;99.90;;;;;;5093038;28;20063;-66
2022/12/09 09:51:53;;;;;;;72.22;21.17;;;1.30;99.90;;;;;;5092837;28;20047;-65
2022/12/09 09:54:19;;;;;;;62.95;21.10;;;1.30;99.90;;;;;;5092771;28;20534;-64
2022/12/09 09:57:10;;;;;;;62.95;20.98;;;1.40;99.90;;;;;;5092848;28;20486;-65
2022/12/09 09:59:40;;;;;;;40.58;19.45;;;1.40;99.90;;;;;;5092889;28;20031;-65
2022/12/09 10:02:19;;;;;;;58.58;19.85;;;1.30;99.90;;;;;;5092579;28;20044;-65
2022/12/09 10:05:12;;;;;;;58.97;20.30;;;1.20;99.90;;;;;;5092854;28;20074;-66
2022/12/09 10:07:40;;;;;;;60.08;19.10;;;1.40;99.90;;;;;;5092797;28;20039;-64
2022/12/09 10:10:40;;;;;;;75.03;19.23;;;1.40;99.90;;;;;;5126845;28;20132;-66
2022/12/09 10:13:17;;;;;;;73.15;19.85;;;1.40;99.90;;;;;;5128717;27;20058;-66
2022/12/09 10:16:07;;;;;;;84.00;19.85;;;1.40;99.90;;;;;;5080058;28;20084;-65
2022/12/09 10:18:45;;;;;;;42.17;18.98;;;1.30;99.90;;;;;;5131174;27;20092;-65
2022/12/09 10:21:18;;;;;;;70.60;18.95;;;1.30;99.90;;;;;;5079813;28;20043;-65
2022/12/09 10:23:44;;;;;;;;;;;1.30;99.90;;;;;;5097326;28;20032;-63
2022/12/09 10:26:25;;;;;;;40.17;18.73;;;1.40;99.90;;;;;;5096528;28;20002;-64
2022/12/09 10:29:03;;;;;;;74.97;18.48;;;1.40;99.90;;;;;;5131066;27;20545;-65
2022/12/09 10:31:28;;;;;;;43.47;17.80;;;1.40;99.90;;;;;;5096782;28;20521;-65
2022/12/09 10:33:54;;;;;;;34.90;17.90;;;1.40;99.90;;;;;;5096699;28;20135;-64
2022/12/09 10:36:25;;;;;;;31.42;18.10;;;1.40;99.90;;;;;;5096397;28;20047;-65
2022/12/09 10:38:51;;;;;;;34.92;18.20;;;1.40;99.90;;;;;;5130378;27;20031;-65
2022/12/09 10:44:28;;;;;;;28.88;17.92;;;1.50;99.90;;;;;;5129549;27;20071;-65
2022/12/09 10:46:59;;;;;;;32.20;18.38;;;1.50;99.90;;;;;;5130293;27;20039;-65
2022/12/09 10:49:25;;;;;;;30.87;17.83;;;1.60;99.90;;;;;;5130378;27;20042;-65
2022/12/09 10:51:52;;;;;;;36.20;19.20;;;1.50;99.90;;;;;;5130336;27;20379;-65
2022/12/09 10:54:35;;;;;;;39.03;18.80;;;1.50;99.90;;;;;;5130487;27;20047;-65
2022/12/09 10:57:10;;;;;;;;;;;1.60;99.90;;;;;;5096491;28;20082;-64
2022/12/09 10:59:36;;;;;;;33.28;19.52;;;1.60;99.90;;;;;;5079011;28;19915;-65
2022/12/09 11:02:18;;;;;;;33.55;19.05;;;1.60;99.90;;;;;;5129803;27;20047;-65
2022/12/09 11:04:45;;;;;;;34.22;18.52;;;1.50;99.90;;;;;;5121972;27;20093;-65
2022/12/09 11:07:11;;;;;;;35.63;18.70;;;1.60;99.90;;;;;;5095463;28;20038;-64
2022/12/09 11:09:53;;;;;;;39.10;20.45;;;1.60;99.90;;;;;;5095944;28;20470;-65
2022/12/09 11:12:27;;;;;;;34.35;20.10;;;1.70;99.90;;;;;;5095779;28;20031;-64
2022/12/09 11:15:15;;;;;;;35.70;19.75;;;1.90;99.90;;;;;;5129791;27;20040;-65
2022/12/09 11:17:53;;;;;;;32.72;19.77;;;2.20;99.90;;;;;;5084821;28;20067;-65
2022/12/09 11:20:22;;;;;;;32.38;19.05;;;2.30;99.90;;;;;;5129975;27;20046;-65
2022/12/09 11:23:01;;;;;;;34.08;19.25;;;2.50;99.90;;;;;;5130402;27;20363;-64
2022/12/09 11:25:30;;;;;;;34.72;20.45;;;2.70;99.90;;;;;;5094651;28;20043;-65
2022/12/09 11:27:59;;;;;;;34.28;20.70;;;2.90;99.90;;;;;;5095486;28;20363;-64
2022/12/09 11:30:38;;;;;;;31.75;20.10;;;3.10;99.90;;;;;;5095165;28;20047;-65
2022/12/09 11:33:28;;;;;;;31.27;19.25;;;3.30;99.90;;;;;;5095185;28;20096;-65
2022/12/09 11:35:59;;;;;;;33.38;20.50;;;3.40;99.90;;;;;;5095285;28;20070;-64
2022/12/09 11:38:44;;;;;;;33.38;19.67;;;3.50;99.90;;;;;;5095298;28;20035;-65
2022/12/09 11:44:25;;;;;;;34.85;19.58;;;3.60;99.90;;;;;;5095004;28;20106;-65
2022/12/09 11:47:00;;;;;;;33.45;19.30;;;3.60;99.90;;;;;;5095299;28;20402;-64
2022/12/09 11:49:30;;;;;;;31.25;19.67;;;3.60;99.90;;;;;;5094946;28;20039;-65
2022/12/09 11:52:15;;;;;;;35.08;19.85;;;3.60;99.90;;;;;;5094862;28;20478;-64
2022/12/09 11:54:59;;;;;;;29.98;19.55;;;3.40;99.90;;;;;;5094782;28;20126;-64
2022/12/09 11:57:54;;;;;;;31.25;19.70;;;3.80;99.90;;;;;;5094779;28;20031;-65
2022/12/09 12:00:24;;;;;;;34.58;20.40;;;3.80;99.90;;;;;;5111993;28;20483;-66
2022/12/09 12:03:11;;;;;;;45.63;30.45;;;3.70;99.90;;;;;;5094726;28;20134;-64
2022/12/09 12:05:47;;;;;;;36.53;24.08;;;3.60;99.90;;;;;;5110977;28;20456;-65
2022/12/09 12:08:34;;;;;;;39.00;23.67;;;3.60;99.90;;;;;;5077646;28;20066;-65
2022/12/09 12:11:04;;;;;;;30.83;19.50;;;3.90;99.90;;;;;;5094644;28;20077;-65
2022/12/09 12:13:42;;;;;;;36.65;20.85;;;4.10;99.90;;;;;;5094686;28;20054;-66
2022/12/09 12:16:24;;;;;;;28.40;18.33;;;4.20;99.90;;;;;;5094553;28;20532;-65
2022/12/09 12:19:02;;;;;;;30.15;18.48;;;4.70;99.90;;;;;;5077505;28;20398;-65
2022/12/09 12:21:50;;;;;;;28.40;17.58;;;5.00;99.90;;;;;;5094554;28;20083;-65
2022/12/09 12:24:27;;;;;;;28.55;19.05;;;5.00;99.90;;;;;;5094576;28;20474;-65
2022/12/09 12:27:30;;;;;;;30.42;18.30;;;4.80;99.90;;;;;;5094454;28;20043;-65
2022/12/09 12:29:59;;;;;;;;;;;4.60;99.90;;;;;;5129232;27;20039;-65
2022/12/09 12:32:37;;;;;;;27.10;17.17;;;4.50;99.90;;;;;;5128356;27;19922;-66
2022/12/09 12:35:20;;;;;;;28.50;17.40;;;4.30;99.90;;;;;;5094236;28;20040;-65
2022/12/09 12:38:23;;;;;;;30.05;18.55;;;4.30;99.90;;;;;;5094187;28;20036;-64
2022/12/09 12:41:18;;;;;;;26.80;17.77;;;4.10;99.90;;;;;;5094101;28;20028;-65
2022/12/09 12:47:01;;;;;;;28.40;16.92;;;4.00;99.90;;;;;;5094075;28;20540;-66
2022/12/09 12:50:24;;;;;;;24.92;16.60;;;3.90;99.90;;;;;;5128340;27;20047;-65
2022/12/09 12:52:58;;;;;;;28.27;17.95;;;3.90;99.90;;;;;;5029359;28;20045;-66
2022/12/09 12:55:47;;;;;;;29.30;17.27;;;3.80;99.90;;;;;;5032186;28;20069;-65
2022/12/09 12:58:45;;;;;;;26.85;17.42;;;3.70;99.90;;;;;;5031885;28;20543;-66
2022/12/09 13:01:17;;;;;;;28.02;17.60;;;4.00;99.90;;;;;;5032306;28;20418;-65